createdAt,value
2023-05-10T00:03:20.607Z,1.67
2023-05-10T00:08:42.184Z,1.60
2023-05-10T00:14:02.888Z,1.80
2023-05-10T00:19:23.741Z,1.60
2023-05-10T00:24:44.523Z,1.60
2023-05-10T00:30:06.461Z,1.63
2023-05-10T00:35:27.777Z,1.40
2023-05-10T00:40:48.820Z,1.50
2023-05-10T00:46:18.358Z,1.40
2023-05-10T00:51:39.136Z,1.45
2023-05-10T00:56:59.928Z,1.88
2023-05-10T01:02:20.917Z,1.80
2023-05-10T01:07:42.394Z,1.70
2023-05-10T01:13:04.356Z,1.40
2023-05-10T01:18:26.333Z,1.73
2023-05-10T01:24:16.381Z,2.47
2023-05-10T01:29:46.092Z,1.38
2023-05-10T01:35:42.602Z,1.40
2023-05-10T01:41:19.581Z,1.40
2023-05-10T01:46:41.980Z,1.65
2023-05-10T01:52:10.650Z,1.50
2023-05-10T01:57:35.434Z,1.33
2023-05-10T02:02:57.159Z,1.00
2023-05-10T02:08:19.913Z,1.17
2023-05-10T02:13:43.109Z,1.05
2023-05-10T02:19:05.331Z,1.20
2023-05-10T02:24:27.303Z,1.13
2023-05-10T02:29:48.751Z,1.30
2023-05-10T02:35:12.011Z,1.23
2023-05-10T02:40:34.792Z,1.20
2023-05-10T02:45:55.822Z,1.40
2023-05-10T02:51:19.282Z,1.30
2023-05-10T02:56:46.752Z,1.30
2023-05-10T03:02:08.292Z,1.30
2023-05-10T03:07:29.437Z,1.35
2023-05-10T03:12:58.088Z,1.10
2023-05-10T03:18:55.007Z,1.20
2023-05-10T03:24:17.679Z,1.17
2023-05-10T03:29:40.679Z,1.00
2023-05-10T03:35:03.326Z,1.23
2023-05-10T03:40:25.583Z,1.38
2023-05-10T03:45:46.938Z,1.10
2023-05-10T03:51:07.868Z,1.05
2023-05-10T03:56:28.474Z,1.15
2023-05-10T04:01:49.300Z,1.23
2023-05-10T04:07:11.413Z,1.60
2023-05-10T04:12:32.303Z,1.10
2023-05-10T04:17:53.107Z,1.08
2023-05-10T04:23:15.163Z,1.20
2023-05-10T04:28:36.641Z,1.30
2023-05-10T04:33:57.675Z,1.10
2023-05-10T04:39:19.171Z,1.20
2023-05-10T04:44:40.170Z,1.20
2023-05-10T04:50:01.459Z,1.23
2023-05-10T04:55:22.456Z,1.27
2023-05-10T05:00:45.412Z,1.48
2023-05-10T05:06:06.389Z,1.35
2023-05-10T05:11:27.964Z,1.30
2023-05-10T05:16:49.147Z,1.00
2023-05-10T05:22:10.994Z,1.20
2023-05-10T05:27:32.917Z,1.33
2023-05-10T05:32:53.820Z,1.27
2023-05-10T05:38:14.686Z,1.50
2023-05-10T05:43:38.007Z,1.38
2023-05-10T05:49:01.543Z,1.33
2023-05-10T05:54:22.571Z,1.30
2023-05-10T05:59:46.778Z,1.33
2023-05-10T06:05:08.067Z,1.60
2023-05-10T06:10:28.832Z,1.52
2023-05-10T06:15:49.664Z,2.00
2023-05-10T06:21:10.804Z,1.70
2023-05-10T06:26:31.867Z,1.55
2023-05-10T06:31:55.136Z,1.08
2023-05-10T06:37:16.069Z,1.70
2023-05-10T06:42:37.330Z,1.38
2023-05-10T06:48:00.309Z,1.20
2023-05-10T06:53:21.703Z,1.70
2023-05-10T06:58:44.092Z,1.75
2023-05-10T07:04:05.108Z,1.30
2023-05-10T07:09:28.177Z,1.67
2023-05-10T07:14:49.122Z,1.38
2023-05-10T07:20:10.349Z,2.50
2023-05-10T07:25:31.209Z,1.50
2023-05-10T07:30:52.143Z,1.70
2023-05-10T07:36:12.960Z,1.60
2023-05-10T07:41:35.832Z,2.03
2023-05-10T07:46:57.537Z,1.80
2023-05-10T07:52:20.617Z,1.30
2023-05-10T07:57:43.361Z,1.67
2023-05-10T08:03:04.700Z,1.48
2023-05-10T08:08:26.015Z,1.75
2023-05-10T08:13:47.055Z,1.40
2023-05-10T08:19:09.150Z,1.33
2023-05-10T08:24:30.059Z,1.90
2023-05-10T08:29:50.987Z,2.00
2023-05-10T08:35:11.900Z,1.83
2023-05-10T08:40:32.958Z,1.75
2023-05-10T08:45:55.386Z,1.58
2023-05-10T08:51:21.090Z,1.58
2023-05-10T08:56:42.174Z,1.60
2023-05-10T09:02:05.682Z,1.58
2023-05-10T09:07:27.385Z,1.40
2023-05-10T09:12:49.686Z,1.75
2023-05-10T09:18:10.850Z,1.40
2023-05-10T09:23:33.376Z,2.05
2023-05-10T09:29:01.360Z,2.28
2023-05-10T09:34:32.945Z,1.65
2023-05-10T09:39:56.091Z,1.45
2023-05-10T09:45:17.335Z,1.48
2023-05-10T09:50:38.764Z,1.48
2023-05-10T09:55:59.887Z,1.60
2023-05-10T10:01:20.821Z,1.85
2023-05-10T10:06:42.569Z,1.20
2023-05-10T10:12:04.870Z,2.05
2023-05-10T10:17:29.357Z,1.30
2023-05-10T10:22:50.944Z,1.60
2023-05-10T10:28:26.194Z,1.38
2023-05-10T10:34:07.926Z,1.58
2023-05-10T10:39:28.872Z,1.15
2023-05-10T10:44:49.795Z,1.30
2023-05-10T10:50:11.817Z,1.50
2023-05-10T10:55:35.053Z,1.73
2023-05-10T11:01:14.636Z,1.63
2023-05-10T11:06:36.970Z,1.50
2023-05-10T11:11:59.228Z,1.40
2023-05-10T11:17:25.171Z,2.28
2023-05-10T11:22:56.078Z,1.70
2023-05-10T11:28:20.083Z,1.63
2023-05-10T11:33:46.403Z,1.52
2023-05-10T11:39:07.823Z,1.60
2023-05-10T11:44:32.990Z,1.20
2023-05-10T11:49:54.368Z,1.88
2023-05-10T11:55:15.670Z,1.38
2023-05-10T12:00:36.511Z,1.85
2023-05-10T12:05:58.999Z,1.75
2023-05-10T12:11:20.404Z,2.40
2023-05-10T12:16:41.371Z,1.90
2023-05-10T12:22:06.789Z,1.90
2023-05-10T12:33:17.761Z,2.20
2023-05-10T12:38:44.563Z,2.17
2023-05-10T12:44:05.496Z,1.92
2023-05-10T12:49:26.330Z,2.00
2023-05-10T12:54:47.709Z,1.92
2023-05-10T13:00:09.390Z,1.60
2023-05-10T13:05:30.478Z,2.00
2023-05-10T13:10:51.505Z,1.70
2023-05-10T13:16:12.386Z,1.85
2023-05-10T13:21:33.494Z,1.98
2023-05-10T13:26:54.521Z,1.80
2023-05-10T13:32:15.195Z,2.13
2023-05-10T13:37:38.300Z,1.70
2023-05-10T13:42:59.512Z,2.00
2023-05-10T13:48:20.117Z,1.92
2023-05-10T13:53:41.049Z,1.63
2023-05-10T13:59:01.656Z,1.75
2023-05-10T14:04:22.580Z,1.60
2023-05-10T14:09:43.744Z,2.08
2023-05-10T14:15:07.752Z,1.70
2023-05-10T14:20:29.338Z,1.98
2023-05-10T14:25:50.775Z,1.60
2023-05-10T14:31:11.751Z,1.80
2023-05-10T14:36:32.621Z,1.70
2023-05-10T14:41:53.676Z,1.60
2023-05-10T14:47:14.353Z,1.90
2023-05-10T14:52:35.250Z,1.73
2023-05-10T14:57:56.516Z,2.00
2023-05-10T15:03:17.404Z,1.40
2023-05-10T15:08:38.562Z,1.42
2023-05-10T15:13:59.316Z,1.75
2023-05-10T15:19:21.228Z,1.88
2023-05-10T15:24:42.269Z,1.52
2023-05-10T15:30:03.724Z,1.70
2023-05-10T15:35:24.559Z,1.30
2023-05-10T15:40:45.616Z,1.67
2023-05-10T15:46:08.511Z,1.50
2023-05-10T15:51:29.322Z,1.65
2023-05-10T15:56:52.661Z,1.75
2023-05-10T16:02:15.997Z,1.67
2023-05-10T16:07:40.278Z,1.40
2023-05-10T16:13:03.907Z,1.45
2023-05-10T16:18:24.766Z,1.70
2023-05-10T16:23:46.604Z,1.33
2023-05-10T16:29:08.556Z,1.50
2023-05-10T16:34:29.521Z,1.65
2023-05-10T16:39:50.295Z,1.73
2023-05-10T16:45:11.741Z,1.40
2023-05-10T16:50:32.896Z,1.52
2023-05-10T16:55:53.779Z,1.45
2023-05-10T17:01:14.572Z,1.70
2023-05-10T17:06:36.905Z,1.50
2023-05-10T17:11:58.181Z,1.70
2023-05-10T17:17:19.960Z,1.35
2023-05-10T17:22:41.840Z,2.28
2023-05-10T17:28:03.613Z,1.50
2023-05-10T17:33:24.546Z,1.38
2023-05-10T17:38:46.051Z,1.60
2023-05-10T17:44:07.463Z,1.52
2023-05-10T17:49:29.047Z,1.55
2023-05-10T17:54:52.639Z,1.48
2023-05-10T18:00:15.777Z,1.80
2023-05-10T18:05:39.314Z,1.38
2023-05-10T18:11:00.298Z,1.10
2023-05-10T18:16:22.248Z,2.67
2023-05-10T18:21:43.207Z,2.28
2023-05-10T18:27:05.968Z,2.80
2023-05-10T18:32:31.785Z,2.20
2023-05-10T18:38:06.156Z,3.08
2023-05-10T18:43:26.909Z,3.83
2023-05-10T18:48:47.869Z,3.13
2023-05-10T18:54:08.897Z,3.15
2023-05-10T18:59:30.046Z,3.28
2023-05-10T19:04:52.109Z,3.17
2023-05-10T19:10:13.730Z,3.47
2023-05-10T19:15:35.176Z,4.57
2023-05-10T19:20:56.598Z,4.18
2023-05-10T19:26:19.676Z,3.58
2023-05-10T19:31:40.933Z,4.05
2023-05-10T19:37:02.258Z,4.88
2023-05-10T19:42:23.540Z,4.95
2023-05-10T19:47:44.928Z,4.53
2023-05-10T19:53:06.227Z,4.28
2023-05-10T19:58:28.635Z,4.50
2023-05-10T20:03:49.976Z,4.80
2023-05-10T20:09:10.925Z,4.18
2023-05-10T20:14:31.600Z,3.47
2023-05-10T20:19:52.547Z,5.60
2023-05-10T20:25:14.646Z,4.85
2023-05-10T20:30:36.146Z,2.95
2023-05-10T20:35:57.487Z,3.08
2023-05-10T20:41:18.409Z,3.28
2023-05-10T20:46:39.777Z,3.00
2023-05-10T20:52:02.827Z,2.90
2023-05-10T20:57:24.074Z,4.00
2023-05-10T21:02:46.373Z,4.35
2023-05-10T21:08:06.976Z,5.22
2023-05-10T21:13:27.804Z,5.80
2023-05-10T21:18:48.751Z,7.18
2023-05-10T21:24:09.546Z,5.30
2023-05-10T21:29:31.036Z,4.35
2023-05-10T21:34:52.238Z,3.45
2023-05-10T21:40:13.309Z,3.35
2023-05-10T21:45:34.417Z,4.22
2023-05-10T21:50:55.549Z,3.30
2023-05-10T21:56:16.574Z,1.88
2023-05-10T22:01:37.489Z,1.70
2023-05-10T22:06:58.803Z,2.00
2023-05-10T22:12:20.099Z,1.70
2023-05-10T22:17:41.248Z,1.20
2023-05-10T22:23:03.947Z,1.38
2023-05-10T22:28:25.472Z,1.70
2023-05-10T22:33:46.523Z,1.40
2023-05-10T22:39:07.543Z,1.60
2023-05-10T22:44:28.456Z,1.20
2023-05-10T22:49:49.293Z,1.50
2023-05-10T22:55:10.230Z,1.52
2023-05-10T23:00:31.317Z,1.40
2023-05-10T23:05:52.311Z,1.80
2023-05-10T23:11:14.839Z,1.70
2023-05-10T23:16:36.090Z,1.20
2023-05-10T23:21:57.399Z,1.30
2023-05-10T23:27:18.172Z,1.20
2023-05-10T23:32:39.176Z,1.50
2023-05-10T23:38:00.442Z,1.38
2023-05-10T23:43:21.849Z,1.48
2023-05-10T23:48:44.374Z,1.20
2023-05-10T23:54:05.127Z,1.30
2023-05-10T23:59:26.723Z,1.52
